createdAt,value
2022-11-06T00:00:26.922Z,99.90
2022-11-06T00:02:56.997Z,99.90
2022-11-06T00:05:42.577Z,99.90
2022-11-06T00:08:09.429Z,99.90
2022-11-06T00:10:36.359Z,99.90
2022-11-06T00:13:03.443Z,99.90
2022-11-06T00:15:30.314Z,99.90
2022-11-06T00:17:57.089Z,99.90
2022-11-06T00:20:23.845Z,99.90
2022-11-06T00:22:50.553Z,99.90
2022-11-06T00:25:17.368Z,99.90
2022-11-06T00:27:44.142Z,99.90
2022-11-06T00:30:13.836Z,99.90
2022-11-06T00:32:40.528Z,99.90
2022-11-06T00:35:07.412Z,99.90
2022-11-06T00:37:34.246Z,99.90
2022-11-06T00:40:01.045Z,99.90
2022-11-06T00:42:27.713Z,99.90
2022-11-06T00:44:54.583Z,99.90
2022-11-06T00:47:21.344Z,99.90
2022-11-06T00:49:48.131Z,99.90
2022-11-06T00:52:15.168Z,99.90
2022-11-06T00:54:41.983Z,99.90
2022-11-06T00:57:08.682Z,99.90
2022-11-06T00:59:35.368Z,99.90
2022-11-06T01:02:02.332Z,99.90
2022-11-06T01:04:29.124Z,99.90
2022-11-06T01:06:58.842Z,99.90
2022-11-06T01:09:26.884Z,99.90
2022-11-06T01:14:42.843Z,99.90
2022-11-06T01:17:09.728Z,99.90
2022-11-06T01:19:36.453Z,99.90
2022-11-06T01:22:03.400Z,99.90
2022-11-06T01:24:30.166Z,99.90
2022-11-06T01:27:25.992Z,99.90
2022-11-06T01:29:43.977Z,99.90
2022-11-06T01:32:10.849Z,99.90
2022-11-06T01:34:37.533Z,99.90
2022-11-06T01:37:04.453Z,99.90
2022-11-06T01:39:31.194Z,99.90
2022-11-06T01:41:58.329Z,99.90
2022-11-06T01:44:43.541Z,99.90
2022-11-06T01:47:21.560Z,99.90
2022-11-06T01:49:48.973Z,99.90
2022-11-06T01:52:16.350Z,99.90
2022-11-06T01:54:44.603Z,99.90
2022-11-06T01:57:12.966Z,99.90
2022-11-06T01:59:42.446Z,99.90
2022-11-06T02:02:09.397Z,99.90
2022-11-06T02:04:37.904Z,99.90
2022-11-06T02:07:05.273Z,99.90
2022-11-06T02:09:33.068Z,99.90
2022-11-06T02:12:06.114Z,99.90
2022-11-06T02:14:32.797Z,99.90
2022-11-06T02:16:59.817Z,99.90
2022-11-06T02:19:32.573Z,99.90
2022-11-06T02:22:02.489Z,99.90
2022-11-06T02:24:41.366Z,99.90
2022-11-06T02:27:11.364Z,99.90
2022-11-06T02:29:44.746Z,99.90
2022-11-06T02:32:14.563Z,99.90
2022-11-06T02:34:42.264Z,99.90
2022-11-06T02:37:12.049Z,99.90
2022-11-06T02:39:41.024Z,99.90
2022-11-06T02:42:08.385Z,99.90
2022-11-06T02:44:36.608Z,99.90
2022-11-06T02:47:06.622Z,99.90
2022-11-06T02:49:42.647Z,99.90
2022-11-06T02:52:21.293Z,99.90
2022-11-06T02:54:51.309Z,99.90
2022-11-06T02:57:19.522Z,99.90
2022-11-06T02:59:52.308Z,99.90
2022-11-06T03:02:22.385Z,99.90
2022-11-06T03:04:58.561Z,99.90
2022-11-06T03:07:31.298Z,99.90
2022-11-06T03:09:58.107Z,99.90
2022-11-06T03:12:43.773Z,99.90
2022-11-06T03:15:13.278Z,99.90
2022-11-06T03:17:49.118Z,99.90
2022-11-06T03:20:34.531Z,99.90
2022-11-06T03:23:16.587Z,99.90
2022-11-06T03:25:55.385Z,99.90
2022-11-06T03:28:33.962Z,99.90
2022-11-06T03:31:03.078Z,99.90
2022-11-06T03:33:33.627Z,99.90
2022-11-06T03:36:03.161Z,99.90
2022-11-06T03:38:47.640Z,99.90
2022-11-06T03:41:18.290Z,99.90
2022-11-06T03:43:46.495Z,99.90
2022-11-06T03:46:15.813Z,99.90
2022-11-06T03:48:45.615Z,99.90
2022-11-06T03:51:16.263Z,99.90
2022-11-06T03:53:43.033Z,99.90
2022-11-06T03:56:16.194Z,99.90
2022-11-06T03:58:45.450Z,99.90
2022-11-06T04:01:13.313Z,99.90
2022-11-06T04:03:56.147Z,99.90
2022-11-06T04:06:29.778Z,99.90
2022-11-06T04:09:16.856Z,99.90
2022-11-06T04:12:02.639Z,99.90
2022-11-06T04:14:30.739Z,99.90
2022-11-06T04:16:59.835Z,99.90
2022-11-06T04:19:26.643Z,99.90
2022-11-06T04:21:53.286Z,99.90
2022-11-06T04:24:45.842Z,99.90
2022-11-06T04:27:18.856Z,99.90
2022-11-06T04:30:03.088Z,99.90
2022-11-06T04:32:48.881Z,99.90
2022-11-06T04:35:15.572Z,99.90
2022-11-06T04:38:04.752Z,99.90
2022-11-06T04:40:31.504Z,99.90
2022-11-06T04:43:01.642Z,99.90
2022-11-06T04:45:31.321Z,99.90
2022-11-06T04:47:58.993Z,99.90
2022-11-06T04:50:26.547Z,99.90
2022-11-06T04:52:53.744Z,99.90
2022-11-06T04:55:22.437Z,99.90
2022-11-06T04:57:49.263Z,99.90
2022-11-06T05:00:16.574Z,99.90
2022-11-06T05:02:43.274Z,99.90
2022-11-06T05:05:09.942Z,99.90
2022-11-06T05:07:36.822Z,99.90
2022-11-06T05:10:03.952Z,99.90
2022-11-06T05:12:30.742Z,99.90
2022-11-06T05:14:57.388Z,99.90
2022-11-06T05:17:24.053Z,99.90
2022-11-06T05:19:50.721Z,99.90
2022-11-06T05:22:36.117Z,99.90
2022-11-06T05:25:02.945Z,99.90
2022-11-06T05:27:29.704Z,99.90
2022-11-06T05:29:56.387Z,99.90
2022-11-06T05:32:23.395Z,99.90
2022-11-06T05:34:50.102Z,99.90
2022-11-06T05:37:16.778Z,99.90
2022-11-06T05:39:43.437Z,99.90
2022-11-06T05:42:10.121Z,99.90
2022-11-06T05:44:37.715Z,99.90
2022-11-06T05:47:04.583Z,99.90
2022-11-06T05:49:31.378Z,99.90
2022-11-06T05:51:58.252Z,99.90
2022-11-06T05:54:24.995Z,99.90
2022-11-06T05:56:51.739Z,99.90
2022-11-06T05:59:18.437Z,99.90
2022-11-06T06:01:45.373Z,99.90
2022-11-06T06:04:12.283Z,99.90
2022-11-06T06:06:39.345Z,99.90
2022-11-06T06:09:06.084Z,99.90
2022-11-06T06:11:32.859Z,99.90
2022-11-06T06:13:59.983Z,99.90
2022-11-06T06:16:26.827Z,99.90
2022-11-06T06:18:53.549Z,99.90
2022-11-06T06:21:20.207Z,99.90
2022-11-06T06:23:46.959Z,99.90
2022-11-06T06:26:13.770Z,99.90
2022-11-06T06:28:40.513Z,99.90
2022-11-06T06:31:08.234Z,99.90
2022-11-06T06:33:34.929Z,99.90
2022-11-06T06:36:05.304Z,99.90
2022-11-06T06:38:32.244Z,99.90
2022-11-06T06:41:03.165Z,99.90
2022-11-06T06:43:29.908Z,99.90
2022-11-06T06:46:00.455Z,99.90
2022-11-06T06:48:27.236Z,99.90
2022-11-06T06:50:56.747Z,99.90
2022-11-06T06:53:23.599Z,99.90
2022-11-06T06:55:50.307Z,99.90
2022-11-06T06:58:18.211Z,99.90
2022-11-06T07:00:45.327Z,99.90
2022-11-06T07:03:12.284Z,99.90
2022-11-06T07:05:39.079Z,99.90
2022-11-06T07:08:05.812Z,99.90
2022-11-06T07:10:32.900Z,99.90
2022-11-06T07:13:03.400Z,99.90
2022-11-06T07:15:30.191Z,99.90
2022-11-06T07:18:01.605Z,99.90
2022-11-06T07:20:28.554Z,99.90
2022-11-06T07:22:55.591Z,99.90
2022-11-06T07:25:22.301Z,99.90
2022-11-06T07:27:49.023Z,99.90
2022-11-06T07:30:16.396Z,99.90
2022-11-06T07:32:43.692Z,99.90
2022-11-06T07:35:10.391Z,99.90
2022-11-06T07:37:37.270Z,99.90
2022-11-06T07:40:04.274Z,99.90
2022-11-06T07:42:31.303Z,99.90
2022-11-06T07:45:03.246Z,99.90
2022-11-06T07:47:30.622Z,99.90
2022-11-06T07:49:57.294Z,99.90
2022-11-06T07:52:24.147Z,99.90
2022-11-06T07:54:50.938Z,99.90
2022-11-06T07:57:17.841Z,99.90
2022-11-06T07:59:44.604Z,99.90
2022-11-06T08:02:12.900Z,99.90
2022-11-06T08:04:39.849Z,99.90
2022-11-06T08:07:06.586Z,99.90
2022-11-06T08:09:33.330Z,99.70
2022-11-06T08:12:00.093Z,99.20
2022-11-06T08:14:26.756Z,98.00
2022-11-06T08:16:53.531Z,97.60
2022-11-06T08:19:20.168Z,96.70
2022-11-06T08:21:46.837Z,95.90
2022-11-06T08:24:16.441Z,94.20
2022-11-06T08:26:48.422Z,92.70
2022-11-06T08:29:15.290Z,90.20
2022-11-06T08:31:42.160Z,87.30
2022-11-06T08:34:09.196Z,85.40
2022-11-06T08:36:37.655Z,84.70
2022-11-06T08:39:04.380Z,83.70
2022-11-06T08:41:31.055Z,81.80
2022-11-06T08:43:57.704Z,80.00
2022-11-06T08:46:24.472Z,78.50
2022-11-06T08:48:51.502Z,75.50
2022-11-06T08:51:18.316Z,76.30
2022-11-06T08:53:45.194Z,75.20
2022-11-06T08:56:11.900Z,74.80
2022-11-06T08:58:39.104Z,72.10
2022-11-06T09:01:06.107Z,71.60
2022-11-06T09:03:32.887Z,71.30
2022-11-06T09:05:59.539Z,72.40
2022-11-06T09:08:26.422Z,71.70
2022-11-06T09:10:58.473Z,70.00
2022-11-06T09:13:26.253Z,69.40
2022-11-06T09:15:53.080Z,69.80
2022-11-06T09:18:21.026Z,70.10
2022-11-06T09:20:47.746Z,69.40
2022-11-06T09:23:15.528Z,68.80
2022-11-06T09:25:42.365Z,68.10
2022-11-06T09:28:09.079Z,66.30
2022-11-06T09:30:35.939Z,66.60
2022-11-06T09:33:02.970Z,66.60
2022-11-06T09:35:31.103Z,67.10
2022-11-06T09:38:02.186Z,66.40
2022-11-06T09:40:43.730Z,67.70
2022-11-06T09:43:58.067Z,67.30
2022-11-06T09:46:15.665Z,65.50
2022-11-06T09:48:44.593Z,65.00
2022-11-06T09:51:28.008Z,64.90
2022-11-06T09:53:58.803Z,65.30
2022-11-06T09:56:29.569Z,64.40
2022-11-06T09:58:56.599Z,64.10
2022-11-06T10:01:27.305Z,64.20
2022-11-06T10:03:56.382Z,64.00
2022-11-06T10:06:24.212Z,63.10
2022-11-06T10:08:51.821Z,62.20
2022-11-06T10:11:18.459Z,63.50
2022-11-06T10:13:59.859Z,65.10
2022-11-06T10:16:36.181Z,66.70
2022-11-06T10:19:21.641Z,67.30
2022-11-06T10:21:52.701Z,68.00
2022-11-06T10:24:38.477Z,69.10
2022-11-06T10:27:12.736Z,68.70
2022-11-06T10:29:49.101Z,69.10
2022-11-06T10:32:25.113Z,69.10
2022-11-06T10:35:15.216Z,68.90
2022-11-06T10:37:48.095Z,68.30
2022-11-06T10:40:19.817Z,69.20
2022-11-06T10:42:49.317Z,69.90
2022-11-06T10:45:17.326Z,69.60
2022-11-06T10:47:49.823Z,70.10
2022-11-06T10:50:17.818Z,69.50
2022-11-06T10:52:57.297Z,69.70
2022-11-06T10:55:42.483Z,72.00
2022-11-06T10:58:19.781Z,74.30
2022-11-06T11:00:46.853Z,77.20
2022-11-06T11:03:22.584Z,79.50
2022-11-06T11:05:49.410Z,81.50
2022-11-06T11:08:31.502Z,82.80
2022-11-06T11:11:22.667Z,84.60
2022-11-06T11:13:51.331Z,86.50
2022-11-06T11:16:19.907Z,88.40
2022-11-06T11:18:46.722Z,89.60
2022-11-06T11:21:13.492Z,90.40
2022-11-06T11:23:40.983Z,91.10
2022-11-06T11:26:14.048Z,91.60
2022-11-06T11:28:41.168Z,91.90
2022-11-06T11:31:13.418Z,92.20
2022-11-06T11:33:41.493Z,92.70
2022-11-06T11:36:09.887Z,93.50
2022-11-06T11:38:38.407Z,93.50
2022-11-06T11:41:06.518Z,93.90
2022-11-06T11:43:33.389Z,94.00
2022-11-06T11:46:03.504Z,94.30
2022-11-06T11:48:47.181Z,94.90
2022-11-06T11:51:36.674Z,95.30
2022-11-06T11:54:16.835Z,95.00
2022-11-06T11:57:03.643Z,95.10
2022-11-06T11:59:31.741Z,95.10
2022-11-06T12:02:03.929Z,95.50
2022-11-06T12:04:41.081Z,95.10
2022-11-06T12:07:14.248Z,95.70
2022-11-06T12:09:42.252Z,95.40
2022-11-06T12:12:20.311Z,95.40
2022-11-06T12:14:47.005Z,95.60
2022-11-06T12:17:16.381Z,96.00
2022-11-06T12:19:46.276Z,95.80
2022-11-06T12:22:20.861Z,95.80
2022-11-06T12:24:51.900Z,96.00
2022-11-06T12:27:21.811Z,95.70
2022-11-06T12:29:54.460Z,95.70
2022-11-06T12:32:31.740Z,95.30
2022-11-06T12:35:17.476Z,95.00
2022-11-06T12:38:00.975Z,95.40
2022-11-06T12:40:47.594Z,95.80
2022-11-06T12:43:20.746Z,96.00
2022-11-06T12:46:07.961Z,95.90
2022-11-06T12:48:44.456Z,95.90
2022-11-06T12:51:11.284Z,94.80
2022-11-06T12:53:52.146Z,95.30
2022-11-06T12:56:25.857Z,94.90
2022-11-06T12:59:11.500Z,95.10
2022-11-06T13:01:48.357Z,94.90
2022-11-06T13:04:21.636Z,94.80
2022-11-06T13:07:10.102Z,94.50
2022-11-06T13:09:41.876Z,94.90
2022-11-06T13:12:08.731Z,94.70
2022-11-06T13:14:40.447Z,93.70
2022-11-06T13:17:18.396Z,94.00
2022-11-06T13:19:45.909Z,94.40
2022-11-06T13:22:31.427Z,94.00
2022-11-06T13:25:02.353Z,94.40
2022-11-06T13:27:41.393Z,95.30
2022-11-06T13:30:16.983Z,94.20
2022-11-06T13:33:10.162Z,94.20
2022-11-06T13:35:39.383Z,93.50
2022-11-06T13:38:14.315Z,93.80
2022-11-06T13:40:45.219Z,93.80
2022-11-06T13:43:16.539Z,93.40
2022-11-06T13:45:46.673Z,93.80
2022-11-06T13:48:16.793Z,94.70
2022-11-06T13:50:49.773Z,95.20
2022-11-06T13:53:34.637Z,95.90
2022-11-06T13:56:10.246Z,95.90
2022-11-06T13:59:03.353Z,96.10
2022-11-06T14:01:36.518Z,96.40
2022-11-06T14:04:06.321Z,96.90
2022-11-06T14:06:34.324Z,97.10
2022-11-06T14:09:06.360Z,97.40
2022-11-06T14:11:34.952Z,97.70
2022-11-06T14:14:11.871Z,98.00
2022-11-06T14:16:39.625Z,98.30
2022-11-06T14:19:06.398Z,98.90
2022-11-06T14:21:36.090Z,99.10
2022-11-06T14:24:07.633Z,99.30
2022-11-06T14:26:42.211Z,99.50
2022-11-06T14:29:27.831Z,99.90
2022-11-06T14:32:00.751Z,99.90
2022-11-06T14:34:31.609Z,99.90
2022-11-06T14:36:58.591Z,99.90
2022-11-06T14:39:44.349Z,99.90
2022-11-06T14:42:11.103Z,99.90
2022-11-06T14:44:42.441Z,99.90
2022-11-06T14:47:20.339Z,99.90
2022-11-06T14:49:50.049Z,99.90
2022-11-06T14:52:17.441Z,99.90
2022-11-06T14:54:51.160Z,99.90
2022-11-06T14:57:33.353Z,99.90
2022-11-06T15:00:00.657Z,99.90
2022-11-06T15:02:28.820Z,99.90
2022-11-06T15:05:01.603Z,99.90
2022-11-06T15:08:06.750Z,99.90
2022-11-06T15:10:42.749Z,99.90
2022-11-06T15:13:23.213Z,99.90
2022-11-06T15:15:56.237Z,99.90
2022-11-06T15:18:25.799Z,99.90
2022-11-06T15:20:56.808Z,99.90
2022-11-06T15:23:24.814Z,99.90
2022-11-06T15:26:10.603Z,99.90
2022-11-06T15:29:00.679Z,99.90
2022-11-06T15:31:28.923Z,99.90
2022-11-06T15:34:01.266Z,99.90
2022-11-06T15:36:29.192Z,99.90
2022-11-06T15:38:55.935Z,99.90
2022-11-06T15:41:26.548Z,99.90
2022-11-06T15:43:55.006Z,99.90
2022-11-06T15:46:23.455Z,99.90
2022-11-06T15:49:13.436Z,99.90
2022-11-06T15:51:40.309Z,99.90
2022-11-06T15:54:11.761Z,99.90
2022-11-06T15:56:38.498Z,99.90
2022-11-06T15:59:09.957Z,99.90
2022-11-06T16:01:37.212Z,99.90
2022-11-06T16:04:16.708Z,99.90
2022-11-06T16:06:44.510Z,99.90
2022-11-06T16:09:15.388Z,99.90
2022-11-06T16:11:42.382Z,99.90
2022-11-06T16:14:11.070Z,99.90
2022-11-06T16:16:41.654Z,99.90
2022-11-06T16:19:24.097Z,99.90
2022-11-06T16:21:52.998Z,99.90
2022-11-06T16:24:19.754Z,99.90
2022-11-06T16:26:50.560Z,99.90
2022-11-06T16:29:22.768Z,99.90
2022-11-06T16:31:58.382Z,99.90
2022-11-06T16:34:31.336Z,99.90
2022-11-06T16:37:03.547Z,99.90
2022-11-06T16:39:47.825Z,99.90
2022-11-06T16:42:22.060Z,99.90
2022-11-06T16:44:49.594Z,99.90
2022-11-06T16:47:18.030Z,99.90
2022-11-06T16:49:53.638Z,99.90
2022-11-06T16:52:22.363Z,99.90
2022-11-06T16:54:50.423Z,99.90
2022-11-06T16:57:19.278Z,99.90
2022-11-06T16:59:53.989Z,99.90
2022-11-06T17:02:22.445Z,99.90
2022-11-06T17:04:49.427Z,99.90
2022-11-06T17:07:20.781Z,99.90
2022-11-06T17:09:47.718Z,99.90
2022-11-06T17:12:14.500Z,99.90
2022-11-06T17:14:42.858Z,99.90
2022-11-06T17:17:24.640Z,99.90
2022-11-06T17:19:52.005Z,99.90
2022-11-06T17:22:18.741Z,99.90
2022-11-06T17:24:45.664Z,99.90
2022-11-06T17:27:12.569Z,99.90
2022-11-06T17:29:39.514Z,99.90
2022-11-06T17:32:06.505Z,99.90
2022-11-06T17:34:33.501Z,99.90
2022-11-06T17:37:00.203Z,99.90
2022-11-06T17:39:26.923Z,99.90
2022-11-06T17:41:54.513Z,99.90
2022-11-06T17:44:22.330Z,99.90
2022-11-06T17:46:49.338Z,99.90
2022-11-06T17:49:18.297Z,99.90
2022-11-06T17:51:59.966Z,99.90
2022-11-06T17:54:32.271Z,99.90
2022-11-06T17:57:00.409Z,99.90
2022-11-06T17:59:27.286Z,99.90
2022-11-06T18:01:55.012Z,99.90
2022-11-06T18:04:22.632Z,99.90
2022-11-06T18:06:52.245Z,99.90
2022-11-06T18:09:19.994Z,99.90
2022-11-06T18:11:48.920Z,99.90
2022-11-06T18:14:15.936Z,99.90
2022-11-06T18:16:44.149Z,99.90
2022-11-06T18:19:12.387Z,99.90
2022-11-06T18:21:39.223Z,99.90
2022-11-06T18:24:06.278Z,99.90
2022-11-06T18:26:33.062Z,99.90
2022-11-06T18:29:00.106Z,99.90
2022-11-06T18:31:26.913Z,99.90
2022-11-06T18:33:53.677Z,99.90
2022-11-06T18:36:20.414Z,99.90
2022-11-06T18:38:47.123Z,99.90
2022-11-06T18:41:15.245Z,99.90
2022-11-06T18:43:42.505Z,99.90
2022-11-06T18:46:10.982Z,99.90
2022-11-06T18:48:38.171Z,99.90
2022-11-06T18:51:06.305Z,99.90
2022-11-06T18:53:33.338Z,99.90
2022-11-06T18:56:00.270Z,99.90
2022-11-06T18:58:27.217Z,99.90
2022-11-06T19:00:59.017Z,99.90
2022-11-06T19:03:28.652Z,99.90
2022-11-06T19:06:13.446Z,99.90
2022-11-06T19:08:40.882Z,99.90
2022-11-06T19:11:08.328Z,99.90
2022-11-06T19:13:35.680Z,99.90
2022-11-06T19:16:03.169Z,99.90
2022-11-06T19:18:30.148Z,99.90
2022-11-06T19:20:57.135Z,99.90
2022-11-06T19:23:23.927Z,99.90
2022-11-06T19:26:04.318Z,99.90
2022-11-06T19:28:37.904Z,99.90
2022-11-06T19:31:04.992Z,99.90
2022-11-06T19:33:31.738Z,99.90
2022-11-06T19:36:02.791Z,99.90
2022-11-06T19:38:29.672Z,99.90
2022-11-06T19:41:00.721Z,99.90
2022-11-06T19:43:28.246Z,99.90
2022-11-06T19:45:55.407Z,99.90
2022-11-06T19:48:23.155Z,99.90
2022-11-06T19:50:59.735Z,99.90
2022-11-06T19:53:27.272Z,99.90
2022-11-06T19:55:54.150Z,99.90
2022-11-06T19:58:21.103Z,99.90
2022-11-06T20:00:50.842Z,99.90
2022-11-06T20:03:17.635Z,99.90
2022-11-06T20:05:44.956Z,99.90
2022-11-06T20:08:11.797Z,99.90
2022-11-06T20:10:38.595Z,99.90
2022-11-06T20:13:05.730Z,99.90
2022-11-06T20:15:32.909Z,99.90
2022-11-06T20:17:59.699Z,99.90
2022-11-06T20:20:27.378Z,99.90
2022-11-06T20:22:56.321Z,99.90
2022-11-06T20:25:23.286Z,99.90
2022-11-06T20:27:50.185Z,99.90
2022-11-06T20:30:16.945Z,99.90
2022-11-06T20:32:45.173Z,99.90
2022-11-06T20:35:12.069Z,99.90
2022-11-06T20:37:38.714Z,99.90
2022-11-06T20:40:05.840Z,99.90
2022-11-06T20:42:32.639Z,99.90
2022-11-06T20:44:59.455Z,99.90
2022-11-06T20:47:26.208Z,99.90
2022-11-06T20:49:52.974Z,99.90
2022-11-06T20:52:19.675Z,99.90
2022-11-06T20:54:47.653Z,99.90
2022-11-06T20:57:15.434Z,99.90
2022-11-06T20:59:42.589Z,99.90
2022-11-06T21:02:10.914Z,99.90
2022-11-06T21:04:37.747Z,99.90
2022-11-06T21:07:04.505Z,99.90
2022-11-06T21:09:31.175Z,99.90
2022-11-06T21:11:57.884Z,99.90
2022-11-06T21:14:24.599Z,99.90
2022-11-06T21:16:52.640Z,99.90
2022-11-06T21:19:19.847Z,99.90
2022-11-06T21:21:47.005Z,99.90
2022-11-06T21:24:13.739Z,99.90
2022-11-06T21:26:40.664Z,99.90
2022-11-06T21:29:08.803Z,99.90
2022-11-06T21:31:35.688Z,99.90
2022-11-06T21:34:03.145Z,99.90
2022-11-06T21:36:31.514Z,99.90
2022-11-06T21:39:00.766Z,99.90
2022-11-06T21:41:29.466Z,99.90
2022-11-06T21:43:56.953Z,99.90
2022-11-06T21:46:23.883Z,99.90
2022-11-06T21:48:51.442Z,99.90
2022-11-06T21:51:20.642Z,99.90
2022-11-06T21:54:05.863Z,99.90
2022-11-06T21:56:33.277Z,99.90
2022-11-06T21:59:00.622Z,99.90
2022-11-06T22:01:27.778Z,99.90
2022-11-06T22:03:54.667Z,99.90
2022-11-06T22:06:23.300Z,99.90
2022-11-06T22:08:50.481Z,99.90
2022-11-06T22:11:17.131Z,99.90
2022-11-06T22:13:44.400Z,99.90
2022-11-06T22:16:12.021Z,99.90
2022-11-06T22:18:38.804Z,99.90
2022-11-06T22:21:09.621Z,99.90
2022-11-06T22:23:36.914Z,99.90
2022-11-06T22:26:04.436Z,99.90
2022-11-06T22:28:31.600Z,99.90
2022-11-06T22:30:58.372Z,99.90
2022-11-06T22:33:25.269Z,99.90
2022-11-06T22:35:52.009Z,99.90
2022-11-06T22:38:18.664Z,99.90
2022-11-06T22:40:52.081Z,99.90
2022-11-06T22:43:19.120Z,99.90
2022-11-06T22:45:46.261Z,99.90
2022-11-06T22:48:13.063Z,99.90
2022-11-06T22:50:39.756Z,99.90
2022-11-06T22:53:09.495Z,99.90
2022-11-06T22:55:40.442Z,99.90
2022-11-06T22:58:07.576Z,99.90
2022-11-06T23:00:34.303Z,99.90
2022-11-06T23:03:01.167Z,99.90
2022-11-06T23:05:27.917Z,99.90
2022-11-06T23:07:55.571Z,99.90
2022-11-06T23:10:32.713Z,99.90
2022-11-06T23:12:59.461Z,99.90
2022-11-06T23:15:26.412Z,99.90
2022-11-06T23:17:53.126Z,99.90
2022-11-06T23:20:20.100Z,99.90
2022-11-06T23:22:47.227Z,99.90
2022-11-06T23:25:14.456Z,99.90
2022-11-06T23:27:46.995Z,99.90
2022-11-06T23:30:16.217Z,99.90
2022-11-06T23:32:42.913Z,99.90
2022-11-06T23:35:13.707Z,99.90
2022-11-06T23:37:41.200Z,99.90
2022-11-06T23:40:09.247Z,99.90
2022-11-06T23:42:36.573Z,99.90
2022-11-06T23:45:22.380Z,99.90
2022-11-06T23:47:50.004Z,99.90
2022-11-06T23:50:16.825Z,99.90
2022-11-06T23:52:43.997Z,99.90
2022-11-06T23:55:11.030Z,99.90
2022-11-06T23:57:37.947Z,99.90
